Time;durP1;ratioP1;P1;durP2;ratioP2;P2;SDS_P1;SDS_P2;PMS_P1;PMS_P2;Temp;Humidity;BMP_temperature;BMP_pressure;BME280_temperature;BME280_humidity;BME280_pressure;Samples;Min_cycle;Max_cycle;Signal;HPM_P1;HPM_P2
2024/02/15 01:30:40;;;;;;;0.00;0.00;;;;;;;;;;5006483;28;20046;-91
2024/02/15 01:33:06;;;;;;;0.00;0.00;;;;;;;;;;5011990;28;20588;-92
2024/02/15 01:35:31;;;;;;;0.00;0.00;;;;;;;;;;5000781;28;20088;-93
2024/02/15 01:37:58;;;;;;;0.00;0.00;;;;;;;;;;5012234;28;20076;-93
2024/02/15 01:40:23;;;;;;;0.00;0.00;;;;;;;;;;5009723;28;20031;-94
2024/02/15 01:42:49;;;;;;;0.00;0.00;;;;;;;;;;4996070;28;20033;-92
2024/02/15 01:45:16;;;;;;;0.00;0.00;;;;;;;;;;4992479;28;20030;-94
2024/02/15 01:47:43;;;;;;;0.00;0.00;;;;;;;;;;5008622;28;20042;-93
2024/02/15 01:50:13;;;;;;;0.00;0.00;;;12.20;99.90;;;;;;4993657;28;20121;-93
2024/02/15 01:52:40;;;;;;;0.00;0.00;;;12.20;99.90;;;;;;4993607;28;20092;-94
2024/02/15 01:55:08;;;;;;;0.00;0.00;;;;;;;;;;4992422;28;20105;-94
2024/02/15 01:57:38;;;;;;;0.00;0.00;;;12.10;99.90;;;;;;4991637;28;20029;-93
2024/02/15 02:00:06;;;;;;;0.00;0.00;;;12.20;99.90;;;;;;4993790;28;20026;-94
2024/02/15 02:02:33;;;;;;;0.00;0.00;;;12.20;99.90;;;;;;4992141;28;20120;-93
2024/02/15 02:04:59;;;;;;;0.00;0.00;;;;;;;;;;4994083;28;20032;-93
2024/02/15 02:07:26;;;;;;;0.00;0.00;;;;;;;;;;4994749;28;20030;-93
2024/02/15 02:09:52;;;;;;;0.00;0.00;;;;;;;;;;4988581;28;20038;-94
2024/02/15 02:12:18;;;;;;;0.00;0.00;;;;;;;;;;5009482;28;20030;-94
2024/02/15 02:14:44;;;;;;;0.00;0.00;;;;;;;;;;4991987;28;20176;-92
2024/02/15 02:17:13;;;;;;;0.00;0.00;;;12.30;99.90;;;;;;4995050;28;20069;-93
2024/02/15 02:19:49;;;;;;;;;;;12.30;99.90;;;;;;4995465;28;20151;-93
2024/02/15 02:22:51;;;;;;;0.00;0.00;;;12.40;99.90;;;;;;4996247;28;19909;-93
2024/02/15 02:25:28;;;;;;;0.00;0.00;;;;;;;;;;5007503;28;20065;-92
2024/02/15 02:28:24;;;;;;;0.00;0.00;;;12.40;99.90;;;;;;4994869;28;20054;-94
2024/02/15 02:34:02;;;;;;;0.00;0.00;;;;;;;;;;4994688;28;20037;-93
2024/02/15 02:36:29;;;;;;;0.00;0.00;;;;;;;;;;5008846;28;20034;-92
2024/02/15 02:38:55;;;;;;;0.00;0.00;;;;;;;;;;5006828;28;20094;-94
2024/02/15 02:41:21;;;;;;;0.00;0.00;;;;;;;;;;4992213;28;20553;-94
2024/02/15 02:43:47;;;;;;;0.00;0.00;;;;;;;;;;4993317;28;20030;-93
2024/02/15 02:46:13;;;;;;;0.00;0.00;;;;;;;;;;4995808;28;20039;-93
2024/02/15 02:48:39;;;;;;;0.00;0.00;;;;;;;;;;4995360;28;20044;-92
2024/02/15 02:51:06;;;;;;;0.00;0.00;;;12.30;99.90;;;;;;5015591;28;20036;-91
2024/02/15 02:57:12;;;;;;;0.00;0.00;;;12.40;99.90;;;;;;4993969;28;20037;-93
2024/02/15 03:00:12;;;;;;;0.00;0.00;;;;;;;;;;4987147;28;20347;-92
2024/02/15 03:05:27;;;;;;;0.00;0.00;;;;;;;;;;4995322;28;20057;-93
2024/02/15 03:07:53;;;;;;;0.00;0.00;;;;;;;;;;4992349;28;20508;-93
2024/02/15 03:10:19;;;;;;;0.00;0.00;;;;;;;;;;4988087;28;20034;-92
2024/02/15 03:12:48;;;;;;;0.00;0.00;;;;;;;;;;4991147;28;20058;-93
2024/02/15 03:15:14;;;;;;;0.00;0.00;;;;;;;;;;4990892;28;20098;-93
2024/02/15 03:17:41;;;;;;;0.00;0.00;;;;;;;;;;4993061;28;20030;-93
2024/02/15 03:20:24;;;;;;;0.00;0.00;;;;;;;;;;5009142;28;20030;-93
2024/02/15 03:22:57;;;;;;;0.00;0.00;;;12.30;99.90;;;;;;5008884;28;20053;-93
2024/02/15 03:25:34;;;;;;;0.00;0.00;;;;;;;;;;4991615;28;20034;-92
2024/02/15 03:28:13;;;;;;;0.00;0.00;;;;;;;;;;4993377;28;20042;-93
2024/02/15 03:31:14;;;;;;;0.00;0.00;;;;;;;;;;5007063;28;20034;-93
2024/02/15 03:36:30;;;;;;;0.00;0.00;;;;;;;;;;4990683;28;19969;-93
2024/02/15 03:38:56;;;;;;;0.00;0.00;;;;;;;;;;5008976;28;20093;-92
2024/02/15 03:41:23;;;;;;;0.00;0.00;;;;;;;;;;4991614;28;20038;-93
2024/02/15 03:43:49;;;;;;;0.00;0.00;;;12.20;99.90;;;;;;5008161;28;20034;-93
2024/02/15 03:46:15;;;;;;;0.00;0.00;;;;;;;;;;4993334;28;20386;-94
2024/02/15 03:48:45;;;;;;;0.00;0.00;;;12.20;99.90;;;;;;4991089;28;20030;-92
2024/02/15 03:51:12;;;;;;;0.00;0.00;;;;;;;;;;4993761;28;20084;-92
2024/02/15 03:53:38;;;;;;;0.00;0.00;;;;;;;;;;4996901;28;20100;-92
2024/02/15 03:56:04;;;;;;;0.00;0.00;;;;;;;;;;5020093;28;20023;-94
2024/02/15 03:58:32;;;;;;;0.00;0.00;;;;;;;;;;5019896;28;20018;-93
2024/02/15 04:00:59;;;;;;;0.00;0.00;;;;;;;;;;5016433;28;20030;-93
2024/02/15 04:03:24;;;;;;;0.00;0.00;;;;;;;;;;4997225;28;20056;-93
2024/02/15 04:05:50;;;;;;;0.00;0.00;;;;;;;;;;4988492;28;20030;-93
2024/02/15 04:08:18;;;;;;;0.00;0.00;;;;;;;;;;4994127;28;20246;-93
2024/02/15 04:10:45;;;;;;;0.00;0.00;;;;;;;;;;5009452;28;20039;-93
2024/02/15 04:13:11;;;;;;;0.00;0.00;;;;;;;;;;5009106;28;20065;-93
2024/02/15 04:15:38;;;;;;;0.00;0.00;;;;;;;;;;4990168;28;20034;-93
2024/02/15 04:18:04;;;;;;;0.00;0.00;;;;;;;;;;4989645;28;20039;-94
2024/02/15 04:20:30;;;;;;;0.00;0.00;;;;;;;;;;5005446;28;20029;-93
2024/02/15 04:22:57;;;;;;;0.00;0.00;;;;;;;;;;5006967;28;20050;-93
2024/02/15 04:25:27;;;;;;;0.00;0.00;;;;;;;;;;4993399;28;20034;-94
2024/02/15 04:27:53;;;;;;;0.00;0.00;;;;;;;;;;4997536;28;20038;-93
2024/02/15 04:30:20;;;;;;;0.00;0.00;;;;;;;;;;4996678;28;20038;-92
2024/02/15 04:32:46;;;;;;;0.00;0.00;;;;;;;;;;4998052;28;20035;-93
2024/02/15 04:35:12;;;;;;;0.00;0.00;;;;;;;;;;4995761;28;20033;-93
2024/02/15 04:37:38;;;;;;;0.00;0.00;;;;;;;;;;4998542;28;20357;-93
2024/02/15 04:40:09;;;;;;;0.00;0.00;;;;;;;;;;4997743;28;20046;-93
2024/02/15 04:42:39;;;;;;;0.00;0.00;;;;;;;;;;5014935;28;20034;-93
2024/02/15 04:45:08;;;;;;;0.00;0.00;;;12.50;99.90;;;;;;5011222;28;20035;-93
2024/02/15 04:47:34;;;;;;;0.00;0.00;;;;;;;;;;4992618;28;20035;-92
2024/02/15 04:50:00;;;;;;;0.00;0.00;;;;;;;;;;5010380;28;20057;-93
2024/02/15 04:52:26;;;;;;;0.00;0.00;;;;;;;;;;4994028;28;20112;-92
2024/02/15 04:54:54;;;;;;;0.00;0.00;;;;;;;;;;5011984;28;20193;-93
2024/02/15 04:57:20;;;;;;;0.00;0.00;;;;;;;;;;5012493;28;20034;-93
2024/02/15 04:59:48;;;;;;;0.00;0.00;;;;;;;;;;4992402;28;20027;-91
2024/02/15 05:02:14;;;;;;;0.00;0.00;;;;;;;;;;4997300;28;20031;-93
2024/02/15 05:04:42;;;;;;;0.00;0.00;;;;;;;;;;5009599;28;20037;-92
2024/02/15 05:07:08;;;;;;;0.00;0.00;;;;;;;;;;5010086;28;20080;-93
2024/02/15 05:09:34;;;;;;;0.00;0.00;;;;;;;;;;4990312;28;20121;-93
2024/02/15 05:12:10;;;;;;;0.00;0.00;;;12.50;99.90;;;;;;5010501;28;20116;-92
2024/02/15 05:14:37;;;;;;;0.00;0.00;;;;;;;;;;4992189;28;20034;-92
2024/02/15 05:17:03;;;;;;;0.00;0.00;;;;;;;;;;5012570;28;20473;-92
2024/02/15 05:19:30;;;;;;;0.00;0.00;;;;;;;;;;5009897;28;20030;-92
2024/02/15 05:21:56;;;;;;;0.00;0.00;;;;;;;;;;4996372;28;20105;-92
2024/02/15 05:24:22;;;;;;;0.00;0.00;;;;;;;;;;4993468;28;20057;-91
2024/02/15 05:26:48;;;;;;;0.00;0.00;;;;;;;;;;4989529;28;20034;-93
2024/02/15 05:29:14;;;;;;;0.00;0.00;;;;;;;;;;4989900;28;20065;-93
2024/02/15 05:31:40;;;;;;;0.00;0.00;;;;;;;;;;5012482;28;20034;-92
2024/02/15 05:34:11;;;;;;;0.00;0.00;;;12.50;99.90;;;;;;4993505;28;20478;-92
2024/02/15 05:36:37;;;;;;;0.00;0.00;;;;;;;;;;4992705;28;20027;-92
2024/02/15 05:39:04;;;;;;;0.00;0.00;;;;;;;;;;5007758;28;20030;-92
2024/02/15 05:41:32;;;;;;;0.10;0.10;;;;;;;;;;5008955;28;20022;-94
2024/02/15 05:43:58;;;;;;;0.00;0.00;;;;;;;;;;5004423;28;20027;-93
2024/02/15 05:46:24;;;;;;;0.00;0.00;;;;;;;;;;5007115;28;20085;-93
2024/02/15 05:48:51;;;;;;;0.00;0.00;;;;;;;;;;5011466;28;20485;-93
2024/02/15 05:51:17;;;;;;;0.00;0.00;;;;;;;;;;4993296;28;20030;-93
2024/02/15 05:53:43;;;;;;;0.00;0.00;;;;;;;;;;4992943;28;20072;-92
2024/02/15 05:56:10;;;;;;;0.00;0.00;;;12.50;99.90;;;;;;5005124;28;20054;-92
2024/02/15 05:58:36;;;;;;;0.00;0.00;;;;;;;;;;4991169;28;20026;-92
2024/02/15 06:02:27;;;;;;;;;;;;;;;;;;;;;
2024/02/15 06:08:48;;;;;;;0.00;0.00;;;12.50;99.90;;;;;;4987056;28;20257;-92
2024/02/15 06:11:38;;;;;;;0.00;0.00;;;12.40;99.90;;;;;;5003023;28;20053;-93
2024/02/15 06:14:04;;;;;;;0.00;0.00;;;;;;;;;;4994241;28;20027;-93
2024/02/15 06:16:30;;;;;;;0.00;0.00;;;;;;;;;;4991811;28;20057;-91
2024/02/15 06:19:10;;;;;;;0.00;0.00;;;;;;;;;;4981932;28;20026;-92
2024/02/15 06:21:42;;;;;;;0.00;0.00;;;;;;;;;;5007594;28;20033;-92
2024/02/15 06:24:22;;;;;;;0.00;0.00;;;;;;;;;;5017622;28;20301;-93
2024/02/15 06:26:58;;;;;;;0.00;0.00;;;;;;;;;;4999520;28;20064;-93
2024/02/15 06:40:40;;;;;;;0.00;0.00;;;;;;;;;;4990814;28;20037;-92
2024/02/15 06:43:34;;;;;;;0.00;0.00;;;;;;;;;;5009638;28;20090;-93
2024/02/15 06:46:09;;;;;;;0.00;0.00;;;;;;;;;;4990986;28;20022;-93
2024/02/15 06:48:40;;;;;;;0.00;0.00;;;;;;;;;;4987267;28;20054;-93
2024/02/15 06:51:15;;;;;;;0.00;0.00;;;;;;;;;;4985781;28;20030;-91
2024/02/15 06:54:06;;;;;;;0.00;0.00;;;12.40;99.90;;;;;;5010485;28;20034;-93
2024/02/15 06:56:37;;;;;;;0.00;0.00;;;12.40;99.90;;;;;;5005053;28;20434;-91
2024/02/15 06:59:14;;;;;;;0.00;0.00;;;;;;;;;;5009582;28;20038;-92
2024/02/15 07:01:42;;;;;;;0.00;0.00;;;;;;;;;;4987611;28;20046;-92
2024/02/15 07:04:14;;;;;;;0.00;0.00;;;;;;;;;;4988646;28;20034;-91
2024/02/15 07:06:47;;;;;;;0.00;0.00;;;;;;;;;;4989403;28;20034;-91
2024/02/15 07:09:20;;;;;;;0.00;0.00;;;;;;;;;;5008106;28;20450;-93
2024/02/15 07:11:46;;;;;;;0.00;0.00;;;;;;;;;;5004591;28;20034;-93
2024/02/15 07:14:16;;;;;;;0.00;0.00;;;;;;;;;;4989458;28;20120;-93
2024/02/15 07:16:47;;;;;;;0.00;0.00;;;12.30;99.90;;;;;;4991868;28;20148;-93
2024/02/15 07:19:16;;;;;;;0.00;0.00;;;;;;;;;;4998193;28;20042;-94
2024/02/15 07:21:43;;;;;;;0.00;0.00;;;;;;;;;;5006573;28;20030;-93
2024/02/15 07:24:09;;;;;;;0.00;0.00;;;;;;;;;;4991984;28;20504;-92
2024/02/15 07:26:36;;;;;;;0.00;0.00;;;;;;;;;;5010996;28;20031;-93
2024/02/15 07:29:05;;;;;;;0.00;0.00;;;;;;;;;;4997006;28;20036;-92
2024/02/15 07:31:31;;;;;;;0.00;0.00;;;;;;;;;;5009346;28;20038;-93
2024/02/15 07:33:57;;;;;;;0.00;0.00;;;;;;;;;;4992236;28;20473;-94
2024/02/15 07:36:23;;;;;;;0.00;0.00;;;;;;;;;;4992360;28;20033;-92
2024/02/15 07:38:50;;;;;;;0.00;0.00;;;12.40;99.90;;;;;;4991786;28;20018;-94
2024/02/15 07:41:22;;;;;;;0.00;0.00;;;12.50;99.90;;;;;;4992585;28;20089;-93
2024/02/15 07:48:57;;;;;;;0.00;0.00;;;;;;;;;;4975620;28;20043;-93
2024/02/15 07:51:23;;;;;;;0.00;0.00;;;;;;;;;;4976268;28;20023;-93
2024/02/15 07:53:50;;;;;;;0.00;0.00;;;;;;;;;;4973711;28;20031;-93
2024/02/15 07:56:18;;;;;;;0.00;0.00;;;12.60;99.90;;;;;;4973725;28;20141;-93
2024/02/15 07:58:46;;;;;;;0.00;0.00;;;;;;;;;;4978184;28;20031;-93
2024/02/15 08:01:13;;;;;;;0.00;0.00;;;;;;;;;;4974706;28;20054;-94
2024/02/15 08:03:44;;;;;;;0.00;0.00;;;;;;;;;;4981591;28;20076;-94
2024/02/15 08:06:12;;;;;;;0.00;0.00;;;;;;;;;;4977984;28;20026;-92
2024/02/15 08:08:38;;;;;;;0.00;0.00;;;;;;;;;;4982554;28;20045;-92
2024/02/15 08:11:05;;;;;;;0.00;0.00;;;;;;;;;;4980397;28;20058;-93
2024/02/15 08:13:31;;;;;;;0.00;0.00;;;;;;;;;;4979832;28;20058;-92
2024/02/15 08:15:57;;;;;;;0.00;0.00;;;;;;;;;;4980653;28;20057;-93
2024/02/15 08:18:23;;;;;;;0.00;0.00;;;;;;;;;;4979631;28;20486;-93
2024/02/15 08:20:49;;;;;;;0.00;0.00;;;;;;;;;;4980368;28;20031;-93
2024/02/15 08:23:14;;;;;;;0.00;0.00;;;;;;;;;;4984014;28;20034;-93
2024/02/15 08:25:41;;;;;;;0.00;0.00;;;;;;;;;;4981763;28;20026;-93
2024/02/15 08:28:28;;;;;;;0.00;0.00;;;;;;;;;;4973567;28;20039;-93
2024/02/15 08:31:21;;;;;;;0.00;0.00;;;;;;;;;;4978076;28;20094;-93
2024/02/15 08:34:16;;;;;;;;;;;;;;;;;;;;;
2024/02/15 08:36:48;;;;;;;0.00;0.00;;;;;;;;;;4978166;28;20107;-93
2024/02/15 08:39:16;;;;;;;0.00;0.00;;;;;;;;;;4979039;28;20126;-93
2024/02/15 08:41:42;;;;;;;0.00;0.00;;;;;;;;;;4977318;28;20019;-93
2024/02/15 08:44:15;;;;;;;0.00;0.00;;;;;;;;;;4965045;28;20042;-93
2024/02/15 08:46:41;;;;;;;0.00;0.00;;;;;;;;;;4978530;28;20030;-93
2024/02/15 08:49:07;;;;;;;0.00;0.00;;;;;;;;;;4980499;28;20026;-92
2024/02/15 08:51:33;;;;;;;0.00;0.00;;;;;;;;;;4981226;28;20023;-93
2024/02/15 08:54:00;;;;;;;0.00;0.00;;;;;;;;;;4977978;28;20031;-93
2024/02/15 08:56:26;;;;;;;0.00;0.00;;;;;;;;;;4978884;28;20035;-93
2024/02/15 08:58:57;;;;;;;0.00;0.00;;;;;;;;;;4976807;28;20019;-93
2024/02/15 09:01:50;;;;;;;0.00;0.00;;;13.30;99.90;;;;;;4976104;28;20035;-93
2024/02/15 09:04:24;;;;;;;0.00;0.00;;;;;;;;;;4977000;28;20034;-94
2024/02/15 09:06:52;;;;;;;0.00;0.00;;;;;;;;;;4965928;28;20042;-93
2024/02/15 09:09:21;;;;;;;0.00;0.00;;;;;;;;;;4975027;28;20054;-93
2024/02/15 09:11:47;;;;;;;0.00;0.00;;;;;;;;;;4978912;28;20034;-92
2024/02/15 09:14:12;;;;;;;0.00;0.00;;;;;;;;;;4979148;28;20043;-95
2024/02/15 09:16:39;;;;;;;0.00;0.00;;;;;;;;;;4976702;28;20470;-94
2024/02/15 09:19:06;;;;;;;0.00;0.00;;;;;;;;;;4976477;28;20035;-93
2024/02/15 09:21:33;;;;;;;0.00;0.00;;;;;;;;;;4973953;28;20030;-93
2024/02/15 09:23:59;;;;;;;0.00;0.00;;;;;;;;;;4974898;28;20065;-93
2024/02/15 09:26:25;;;;;;;0.00;0.00;;;;;;;;;;4976818;28;20547;-94
2024/02/15 09:28:53;;;;;;;0.00;0.00;;;;;;;;;;4968117;28;20039;-93
2024/02/15 09:31:19;;;;;;;0.00;0.00;;;;;;;;;;4974958;28;20094;-92
2024/02/15 09:33:45;;;;;;;0.00;0.00;;;;;;;;;;4986411;28;20056;-93
2024/02/15 09:36:12;;;;;;;0.00;0.00;;;;;;;;;;4978050;28;20058;-93
2024/02/15 09:38:38;;;;;;;0.00;0.00;;;;;;;;;;4979462;28;20113;-93
2024/02/15 09:41:07;;;;;;;0.00;0.00;;;;;;;;;;4979536;28;20073;-94
2024/02/15 09:43:33;;;;;;;0.00;0.00;;;;;;;;;;4980371;28;20022;-94
2024/02/15 09:45:59;;;;;;;0.00;0.00;;;;;;;;;;4981346;28;20054;-93
2024/02/15 09:48:25;;;;;;;0.00;0.00;;;;;;;;;;4971453;28;20092;-94
2024/02/15 09:50:55;;;;;;;0.00;0.00;;;13.90;99.90;;;;;;4979851;28;20027;-93
2024/02/15 09:53:25;;;;;;;0.00;0.00;;;13.90;99.90;;;;;;4981649;28;20341;-92
2024/02/15 09:55:52;;;;;;;0.00;0.00;;;;;;;;;;4977483;28;20030;-94
2024/02/15 09:58:19;;;;;;;0.00;0.00;;;;;;;;;;4979842;28;20437;-93
2024/02/15 10:00:46;;;;;;;0.00;0.00;;;;;;;;;;4972829;28;20027;-93
2024/02/15 10:03:14;;;;;;;0.00;0.00;;;;;;;;;;4972070;28;20029;-93
2024/02/15 10:05:40;;;;;;;0.00;0.00;;;;;;;;;;4965134;28;20074;-93
2024/02/15 10:08:07;;;;;;;0.00;0.00;;;13.90;99.90;;;;;;4973060;28;20046;-93
2024/02/15 10:10:35;;;;;;;0.00;0.00;;;;;;;;;;4975929;28;20085;-93
2024/02/15 10:13:01;;;;;;;0.00;0.00;;;;;;;;;;4979972;28;20070;-93
2024/02/15 10:15:31;;;;;;;0.00;0.00;;;;;;;;;;4977915;28;20023;-92
2024/02/15 10:17:58;;;;;;;0.00;0.00;;;;;;;;;;4975313;28;20034;-93
2024/02/15 10:20:27;;;;;;;0.00;0.00;;;;;;;;;;4968311;28;20019;-93
2024/02/15 10:22:59;;;;;;;0.00;0.00;;;13.80;99.90;;;;;;4967899;28;20035;-94
2024/02/15 10:25:29;;;;;;;0.00;0.00;;;;;;;;;;4973980;28;20037;-93
2024/02/15 10:28:27;;;;;;;0.00;0.00;;;;;;;;;;4969227;28;20030;-94
2024/02/15 10:30:56;;;;;;;0.00;0.00;;;;;;;;;;4971333;28;20041;-94
2024/02/15 10:33:29;;;;;;;0.00;0.00;;;14.10;99.90;;;;;;4966530;28;20026;-92
2024/02/15 10:36:08;;;;;;;0.00;0.00;;;14.20;99.90;;;;;;4978879;28;20486;-93
2024/02/15 10:38:35;;;;;;;0.00;0.00;;;;;;;;;;4975507;28;20117;-93
2024/02/15 10:41:06;;;;;;;0.00;0.00;;;14.10;99.90;;;;;;4972351;28;20443;-92
2024/02/15 10:43:38;;;;;;;0.00;0.00;;;;;;;;;;4972730;28;20035;-93
2024/02/15 10:47:06;;;;;;;0.00;0.00;;;14.00;99.90;;;;;;4972201;28;20034;-93
2024/02/15 10:49:32;;;;;;;0.00;0.00;;;;;;;;;;4968025;28;20057;-93
2024/02/15 10:52:05;;;;;;;0.00;0.00;;;;;;;;;;4965541;28;20039;-92
2024/02/15 10:54:56;;;;;;;0.00;0.00;;;13.70;99.90;;;;;;4975821;28;20117;-94
2024/02/15 10:57:25;;;;;;;0.00;0.00;;;;;;;;;;4975009;28;20030;-94
2024/02/15 11:00:03;;;;;;;0.00;0.00;;;13.50;99.90;;;;;;4972363;28;20034;-91
2024/02/15 11:02:45;;;;;;;0.00;0.00;;;13.40;99.90;;;;;;4975009;28;20047;-93
2024/02/15 11:05:14;;;;;;;0.00;0.00;;;13.40;99.90;;;;;;4976791;28;20176;-93
2024/02/15 11:07:40;;;;;;;0.00;0.00;;;;;;;;;;4970144;28;20046;-95
2024/02/15 11:10:10;;;;;;;0.00;0.00;;;;;;;;;;4972312;28;20540;-94
2024/02/15 11:12:37;;;;;;;0.00;0.00;;;;;;;;;;4971132;28;20034;-93
2024/02/15 11:15:04;;;;;;;0.00;0.00;;;;;;;;;;4957425;28;20045;-91
2024/02/15 11:17:39;;;;;;;0.00;0.00;;;;;;;;;;4960626;28;20035;-92
2024/02/15 11:20:10;;;;;;;0.00;0.00;;;;;;;;;;4968090;28;20031;-92
2024/02/15 11:22:37;;;;;;;0.00;0.00;;;;;;;;;;4964737;28;20493;-93
2024/02/15 11:25:11;;;;;;;0.00;0.00;;;13.30;99.90;;;;;;4966889;28;20041;-93
2024/02/15 11:27:39;;;;;;;0.00;0.00;;;;;;;;;;4968219;28;20049;-93
2024/02/15 11:30:20;;;;;;;0.00;0.00;;;;;;;;;;4976067;28;20034;-93
2024/02/15 11:32:49;;;;;;;0.00;0.00;;;;;;;;;;4972547;28;20027;-93
2024/02/15 11:35:16;;;;;;;0.00;0.00;;;13.40;99.90;;;;;;4968919;28;20054;-92
2024/02/15 11:37:55;;;;;;;0.00;0.00;;;;;;;;;;4967715;28;20483;-92
2024/02/15 11:40:29;;;;;;;0.00;0.00;;;13.40;99.90;;;;;;4972481;28;20528;-93
2024/02/15 11:42:57;;;;;;;0.00;0.00;;;13.40;99.90;;;;;;4976929;28;20114;-93
2024/02/15 11:45:25;;;;;;;0.00;0.00;;;;;;;;;;4975775;28;20042;-92
2024/02/15 11:47:51;;;;;;;0.00;0.00;;;;;;;;;;4974762;28;20030;-92
2024/02/15 11:50:20;;;;;;;0.00;0.00;;;13.40;99.90;;;;;;4975637;28;20041;-91
2024/02/15 11:52:46;;;;;;;0.00;0.00;;;;;;;;;;4973606;28;20227;-92
2024/02/15 11:55:15;;;;;;;0.00;0.00;;;;;;;;;;4973936;28;20066;-92
2024/02/15 11:58:00;;;;;;;0.00;0.00;;;;;;;;;;4974709;28;20026;-93
2024/02/15 12:19:56;;;;;;;0.00;0.00;;;13.40;99.90;;;;;;4973654;28;20088;-92
2024/02/15 12:22:28;;;;;;;0.00;0.00;;;13.50;99.90;;;;;;4968476;28;20533;-92
2024/02/15 12:24:55;;;;;;;0.00;0.00;;;;;;;;;;4973214;28;20505;-93
2024/02/15 12:27:21;;;;;;;0.00;0.00;;;;;;;;;;4970624;28;20058;-92
2024/02/15 12:29:57;;;;;;;0.00;0.00;;;;;;;;;;4973320;28;20545;-93
2024/02/15 12:32:24;;;;;;;0.00;0.00;;;;;;;;;;4970340;28;20042;-92
2024/02/15 12:34:51;;;;;;;0.00;0.00;;;;;;;;;;4978820;28;20073;-92
2024/02/15 12:37:18;;;;;;;0.00;0.00;;;;;;;;;;4966944;28;20109;-92
2024/02/15 12:39:44;;;;;;;0.00;0.00;;;;;;;;;;4970341;28;20027;-92
2024/02/15 12:42:10;;;;;;;0.00;0.00;;;;;;;;;;4967262;28;20031;-93
2024/02/15 12:44:36;;;;;;;0.00;0.00;;;;;;;;;;4966341;28;20033;-92
2024/02/15 12:47:03;;;;;;;0.00;0.00;;;;;;;;;;4968716;28;20493;-93
2024/02/15 12:49:34;;;;;;;0.00;0.00;;;;;;;;;;4981726;28;20027;-92
2024/02/15 12:52:38;;;;;;;0.00;0.00;;;14.60;99.90;;;;;;4970197;28;20030;-91
2024/02/15 12:55:34;;;;;;;0.00;0.00;;;14.70;99.90;;;;;;4968886;28;20442;-91
2024/02/15 12:58:03;;;;;;;0.00;0.00;;;;;;;;;;4969589;28;20046;-92
2024/02/15 13:00:31;;;;;;;0.00;0.00;;;;;;;;;;4969692;28;20449;-91
2024/02/15 13:02:57;;;;;;;0.00;0.00;;;;;;;;;;4974047;28;20022;-92
2024/02/15 13:05:26;;;;;;;0.00;0.00;;;14.60;99.90;;;;;;4972218;28;20031;-93
2024/02/15 13:07:54;;;;;;;0.00;0.00;;;;;;;;;;4969497;28;20105;-94
2024/02/15 13:10:21;;;;;;;0.00;0.00;;;;;;;;;;4968471;28;20027;-93
2024/02/15 13:12:47;;;;;;;0.00;0.00;;;;;;;;;;4972807;28;20068;-92
2024/02/15 13:15:15;;;;;;;0.00;0.00;;;14.80;99.90;;;;;;4960077;28;20775;-92
2024/02/15 13:17:45;;;;;;;0.00;0.00;;;;;;;;;;4969112;28;20027;-95
2024/02/15 13:20:13;;;;;;;0.00;0.00;;;;;;;;;;4978041;28;20027;-92
2024/02/15 13:22:39;;;;;;;0.00;0.00;;;;;;;;;;4972227;28;20033;-91
2024/02/15 13:25:08;;;;;;;0.00;0.00;;;15.00;99.90;;;;;;4966479;28;20023;-92
2024/02/15 13:27:34;;;;;;;0.00;0.00;;;;;;;;;;4966523;28;20317;-92
2024/02/15 13:30:00;;;;;;;0.00;0.00;;;;;;;;;;4967976;28;20500;-92
2024/02/15 13:32:26;;;;;;;0.00;0.00;;;;;;;;;;4968614;28;20549;-92
2024/02/15 13:34:55;;;;;;;0.00;0.00;;;;;;;;;;4963860;28;20026;-93
2024/02/15 13:37:23;;;;;;;0.00;0.00;;;;;;;;;;4971544;28;20027;-92
2024/02/15 13:39:49;;;;;;;0.00;0.00;;;;;;;;;;4971478;28;20027;-91
2024/02/15 13:42:15;;;;;;;0.00;0.00;;;;;;;;;;4968511;28;20169;-92
2024/02/15 13:44:41;;;;;;;0.00;0.00;;;;;;;;;;4966595;28;20026;-92
2024/02/15 13:47:06;;;;;;;0.00;0.00;;;;;;;;;;4964550;28;20038;-91
2024/02/15 13:49:34;;;;;;;0.00;0.00;;;;;;;;;;4972601;28;20023;-92
2024/02/15 13:52:03;;;;;;;0.00;0.00;;;;;;;;;;4964964;28;20058;-93
2024/02/15 13:54:29;;;;;;;0.00;0.00;;;;;;;;;;4967442;28;20023;-93
2024/02/15 13:56:58;;;;;;;0.00;0.00;;;;;;;;;;4960592;28;20031;-92
2024/02/15 13:59:26;;;;;;;0.00;0.00;;;15.00;99.90;;;;;;4968776;28;20045;-94
2024/02/15 14:01:53;;;;;;;0.00;0.00;;;;;;;;;;4970951;28;20027;-93
2024/02/15 14:04:19;;;;;;;0.00;0.00;;;;;;;;;;4972899;28;20019;-94
2024/02/15 14:06:45;;;;;;;0.00;0.00;;;;;;;;;;4976370;28;20224;-92
2024/02/15 14:09:12;;;;;;;0.00;0.00;;;;;;;;;;4974466;28;20027;-93
2024/02/15 14:11:38;;;;;;;0.00;0.00;;;;;;;;;;4974287;28;20438;-93
2024/02/15 14:14:05;;;;;;;0.00;0.00;;;;;;;;;;4974433;28;20031;-92
2024/02/15 14:16:31;;;;;;;0.00;0.00;;;;;;;;;;4969184;28;20035;-93
2024/02/15 14:18:57;;;;;;;0.00;0.00;;;;;;;;;;4980652;28;20034;-93
2024/02/15 14:21:26;;;;;;;0.00;0.00;;;;;;;;;;4984762;28;20035;-93
2024/02/15 14:23:52;;;;;;;0.00;0.00;;;;;;;;;;4969184;28;20034;-94
2024/02/15 14:26:27;;;;;;;0.00;0.00;;;;;;;;;;4970825;28;20039;-93
2024/02/15 14:29:03;;;;;;;0.00;0.00;;;;;;;;;;4962841;28;20121;-95
2024/02/15 14:34:27;;;;;;;0.00;0.00;;;;;;;;;;4966931;28;20046;-92
2024/02/15 14:36:57;;;;;;;0.00;0.00;;;;;;;;;;4972198;28;20201;-93
2024/02/15 14:39:23;;;;;;;0.00;0.00;;;;;;;;;;4971295;28;20031;-93
2024/02/15 14:41:49;;;;;;;0.00;0.00;;;;;;;;;;4973230;28;20030;-93
2024/02/15 14:44:15;;;;;;;0.00;0.00;;;;;;;;;;4980259;28;20493;-92
2024/02/15 14:46:41;;;;;;;0.00;0.00;;;;;;;;;;4977673;28;20031;-93
2024/02/15 14:49:08;;;;;;;0.00;0.00;;;;;;;;;;4970235;28;20100;-93
2024/02/15 14:51:35;;;;;;;0.00;0.00;;;;;;;;;;4970701;28;20046;-93
2024/02/15 14:54:14;;;;;;;0.00;0.00;;;;;;;;;;4964947;28;20062;-92
2024/02/15 14:56:50;;;;;;;0.00;0.00;;;;;;;;;;4969092;28;20038;-92
2024/02/15 14:59:19;;;;;;;0.00;0.00;;;;;;;;;;4970527;28;20089;-93
2024/02/15 15:01:48;;;;;;;0.00;0.00;;;;;;;;;;4973240;28;20031;-93
2024/02/15 15:04:17;;;;;;;0.00;0.00;;;;;;;;;;4973360;28;20034;-93
2024/02/15 15:12:36;;;;;;;0.00;0.00;;;;;;;;;;4972571;28;20069;-93
2024/02/15 15:15:07;;;;;;;0.00;0.00;;;;;;;;;;4967123;28;20031;-93
2024/02/15 15:17:34;;;;;;;0.00;0.00;;;;;;;;;;4969225;28;20023;-93
2024/02/15 15:20:00;;;;;;;0.00;0.00;;;;;;;;;;4971532;28;20029;-94
2024/02/15 15:22:36;;;;;;;0.00;0.00;;;;;;;;;;4974113;28;20031;-94
2024/02/15 15:25:05;;;;;;;0.00;0.00;;;;;;;;;;4974131;28;20047;-94
2024/02/15 15:27:37;;;;;;;0.00;0.00;;;;;;;;;;4970177;28;20121;-93
2024/02/15 15:30:06;;;;;;;0.00;0.00;;;;;;;;;;4981446;28;20493;-92
2024/02/15 15:32:36;;;;;;;0.00;0.00;;;;;;;;;;4976731;28;20038;-93
2024/02/15 15:35:02;;;;;;;0.00;0.00;;;;;;;;;;4969241;28;20039;-92
2024/02/15 15:37:28;;;;;;;0.00;0.00;;;;;;;;;;4973064;28;20041;-92
2024/02/15 15:39:56;;;;;;;0.00;0.00;;;;;;;;;;4973832;28;20120;-93
2024/02/15 15:42:22;;;;;;;0.00;0.00;;;;;;;;;;4966658;28;20042;-93
2024/02/15 15:44:49;;;;;;;0.00;0.00;;;;;;;;;;4987668;28;20034;-93
2024/02/15 15:47:15;;;;;;;0.00;0.00;;;;;;;;;;4968305;28;20027;-92
2024/02/15 15:49:41;;;;;;;0.00;0.00;;;;;;;;;;4969153;28;20141;-91
2024/02/15 15:52:07;;;;;;;0.00;0.00;;;;;;;;;;4974399;28;20490;-93
2024/02/15 15:54:33;;;;;;;0.00;0.00;;;;;;;;;;4973244;28;20109;-93
2024/02/15 15:57:03;;;;;;;0.00;0.00;;;;;;;;;;4972447;28;20616;-94
2024/02/15 15:59:32;;;;;;;0.00;0.00;;;;;;;;;;4972044;28;20059;-92
2024/02/15 16:02:01;;;;;;;0.00;0.00;;;;;;;;;;4967956;28;20026;-93
2024/02/15 16:04:27;;;;;;;0.00;0.00;;;;;;;;;;4959098;28;20031;-93
2024/02/15 16:06:53;;;;;;;0.00;0.00;;;;;;;;;;4973267;28;20301;-94
2024/02/15 16:09:20;;;;;;;0.00;0.00;;;;;;;;;;4980291;28;20034;-93
2024/02/15 16:11:46;;;;;;;0.00;0.00;;;;;;;;;;4978534;28;20031;-93
2024/02/15 16:14:11;;;;;;;0.00;0.00;;;;;;;;;;4975575;28;20045;-92
2024/02/15 16:16:39;;;;;;;0.00;0.00;;;;;;;;;;4964421;28;20032;-93
2024/02/15 16:19:06;;;;;;;0.00;0.00;;;;;;;;;;4969317;28;20031;-93
2024/02/15 16:21:32;;;;;;;0.00;0.00;;;;;;;;;;4976790;28;20046;-92
2024/02/15 16:23:58;;;;;;;0.00;0.00;;;;;;;;;;4975417;28;20022;-92
2024/02/15 16:26:24;;;;;;;0.00;0.00;;;;;;;;;;4973364;28;20030;-92
2024/02/15 16:28:50;;;;;;;0.00;0.00;;;;;;;;;;4973180;28;20114;-93
2024/02/15 16:31:16;;;;;;;0.00;0.00;;;;;;;;;;4975361;28;20057;-93
2024/02/15 16:33:45;;;;;;;0.00;0.00;;;;;;;;;;4969773;28;20034;-92
2024/02/15 16:36:10;;;;;;;0.00;0.00;;;;;;;;;;4964057;28;20039;-93
2024/02/15 16:38:40;;;;;;;0.00;0.00;;;;;;;;;;4972015;28;20034;-93
2024/02/15 16:41:09;;;;;;;0.10;0.10;;;;;;;;;;4981427;28;20034;-92
2024/02/15 16:43:35;;;;;;;0.00;0.00;;;;;;;;;;4977122;28;20490;-91
2024/02/15 16:46:03;;;;;;;0.00;0.00;;;;;;;;;;4970380;28;20027;-91
2024/02/15 16:48:29;;;;;;;0.00;0.00;;;;;;;;;;4972147;28;20027;-89
2024/02/15 16:50:57;;;;;;;0.00;0.00;;;;;;;;;;4971471;28;20106;-90
2024/02/15 16:53:25;;;;;;;0.00;0.00;;;;;;;;;;4968706;28;20015;-92
2024/02/15 16:55:51;;;;;;;0.00;0.00;;;;;;;;;;4974841;28;20058;-90
2024/02/15 16:58:20;;;;;;;0.00;0.00;;;;;;;;;;4970710;28;20035;-92
2024/02/15 17:00:46;;;;;;;0.00;0.00;;;;;;;;;;4970351;28;20046;-91
2024/02/15 17:03:15;;;;;;;0.00;0.00;;;;;;;;;;4974460;28;20039;-92
2024/02/15 17:05:41;;;;;;;0.00;0.00;;;;;;;;;;4971644;28;20039;-92
2024/02/15 17:08:09;;;;;;;0.00;0.00;;;;;;;;;;4965825;28;20510;-92
2024/02/15 17:10:35;;;;;;;0.00;0.00;;;;;;;;;;4975550;28;20027;-91